Belton, Kentucky
Current Conditions -  °F | °C
As of 8:35 AM on Monday 26 Jan 2015 (Local Time) from K2I0 Reporting Station
Overcast Overcast  
Wind Chill: 25°   Ceiling: 1600
Heat Index: 33°   Visibility: 10mi
Dew Point: 29°   Wind: 9mph
Humidity: 87%   Direction: 330°NNW
Pressure: 30.01"   Gusts: NA
Location:  37.16°N, 87.03°W
Report Text: K2I0 261435Z AUTO 33008KT 10SM OVC016 01/M01 A3001 RMK AO2 T00051015
Loading
Personal Weather Stations






























Interactive Weather Map New forecast layout! Learn more

10-Day Weather Forecast

Advertisements
Track Severe Weather on mobile